createdAt,value
2019-03-27T21:02:20.398Z,34.40
2019-03-27T21:06:25.106Z,34.60
2019-03-27T21:10:29.673Z,34.70
2019-03-27T21:14:34.213Z,34.70
2019-03-27T21:18:38.752Z,34.70
2019-03-27T21:22:43.271Z,34.70
2019-03-27T21:26:47.806Z,34.70
2019-03-27T21:30:52.337Z,34.80
2019-03-27T21:34:56.873Z,34.70
2019-03-27T21:39:01.413Z,34.80
2019-03-27T21:43:05.922Z,34.70
2019-03-27T21:47:10.529Z,34.70
2019-03-27T21:51:15.093Z,34.50
2019-03-27T21:55:22.787Z,35.20
2019-03-27T21:59:25.087Z,34.60
2019-03-27T22:03:29.529Z,34.60
2019-03-27T22:07:34.093Z,34.60
2019-03-27T22:11:38.678Z,34.60
2019-03-27T22:15:43.222Z,33.20
2019-03-27T22:19:47.766Z,32.10
2019-03-27T22:23:52.373Z,32.50
2019-03-27T22:27:57.054Z,33.20
2019-03-27T22:32:02.989Z,33.40
2019-03-27T22:36:07.775Z,33.40
2019-03-27T22:40:13.198Z,33.40
2019-03-27T22:44:18.450Z,33.40
2019-03-27T22:48:23.050Z,33.40
2019-03-27T22:52:27.626Z,33.40
2019-03-27T22:56:32.201Z,33.40
2019-03-27T23:00:49.859Z,33.40
2019-03-27T23:04:54.581Z,33.40
2019-03-27T23:08:59.193Z,33.50
2019-03-27T23:13:03.810Z,33.50
2019-03-27T23:17:08.337Z,33.50
2019-03-27T23:21:12.893Z,33.60
2019-03-27T23:25:17.446Z,33.60
2019-03-27T23:29:22.072Z,33.60
2019-03-27T23:33:26.594Z,33.70
2019-03-27T23:37:31.134Z,33.70
2019-03-27T23:41:35.677Z,33.60
2019-03-27T23:45:40.217Z,33.70
2019-03-27T23:49:44.749Z,33.80
2019-03-27T23:53:49.269Z,33.70
2019-03-27T23:57:53.877Z,33.80
